createdAt,value
2019-05-01T00:02:20.930Z,99.90
2019-05-01T00:05:07.858Z,99.90
2019-05-01T00:07:37.387Z,99.90
2019-05-01T00:10:08.852Z,99.90
2019-05-01T00:12:38.981Z,99.90
2019-05-01T00:15:09.365Z,99.90
2019-05-01T00:17:38.667Z,99.90
2019-05-01T00:20:08.230Z,99.90
2019-05-01T00:22:39.608Z,99.90
2019-05-01T00:25:08.868Z,99.90
2019-05-01T00:27:39.114Z,99.90
2019-05-01T00:30:10.695Z,99.90
2019-05-01T00:32:40.020Z,99.90
2019-05-01T00:35:09.396Z,99.90
2019-05-01T00:37:39.998Z,99.90
2019-05-01T00:40:09.574Z,99.90
2019-05-01T00:42:38.826Z,99.90
2019-05-01T00:45:08.205Z,99.90
2019-05-01T00:47:37.527Z,99.90
2019-05-01T00:50:07.351Z,99.90
2019-05-01T00:52:37.353Z,99.90
2019-05-01T00:55:24.480Z,99.90
2019-05-01T00:58:00.660Z,99.90
2019-05-01T01:00:43.225Z,99.90
2019-05-01T01:03:12.014Z,99.90
2019-05-01T01:05:41.525Z,99.90
2019-05-01T01:08:14.541Z,99.90
2019-05-01T01:10:43.810Z,99.90
2019-05-01T01:13:13.141Z,99.90
2019-05-01T01:15:42.417Z,99.90
2019-05-01T01:18:11.876Z,99.90
2019-05-01T01:20:41.456Z,99.90
2019-05-01T01:23:10.949Z,99.90
2019-05-01T01:25:40.567Z,99.90
2019-05-01T01:28:10.079Z,99.90
2019-05-01T01:30:39.630Z,99.90
2019-05-01T01:33:09.015Z,99.90
2019-05-01T01:35:38.613Z,99.90
2019-05-01T01:38:08.132Z,99.90
2019-05-01T01:40:37.852Z,99.90
2019-05-01T01:43:25.369Z,99.90
2019-05-01T01:45:56.388Z,99.90
2019-05-01T01:48:25.712Z,99.90
2019-05-01T01:50:55.322Z,99.90
2019-05-01T01:53:25.137Z,99.90
2019-05-01T01:55:55.775Z,99.90
2019-05-01T01:58:25.535Z,99.90
2019-05-01T02:01:23.177Z,99.90
2019-05-01T02:03:57.238Z,99.90
2019-05-01T02:06:26.679Z,99.90
2019-05-01T02:08:56.952Z,99.90
2019-05-01T02:11:27.341Z,99.90
2019-05-01T02:13:58.385Z,99.90
2019-05-01T02:16:27.720Z,99.90
2019-05-01T02:18:57.123Z,99.90
2019-05-01T02:21:26.562Z,99.90
2019-05-01T02:23:55.969Z,99.90
2019-05-01T02:26:28.304Z,99.90
2019-05-01T02:29:08.029Z,99.90
2019-05-01T02:31:42.841Z,99.90
2019-05-01T02:34:15.278Z,99.90
2019-05-01T02:36:46.724Z,99.90
2019-05-01T02:39:18.312Z,99.90
2019-05-01T02:41:49.660Z,99.90
2019-05-01T02:44:32.118Z,99.90
2019-05-01T02:47:04.895Z,99.90
2019-05-01T02:49:42.636Z,99.90
2019-05-01T02:52:13.251Z,99.90
2019-05-01T02:54:45.377Z,99.90
2019-05-01T02:57:18.303Z,99.90
2019-05-01T02:59:51.551Z,99.90
2019-05-01T03:02:22.658Z,99.90
2019-05-01T03:04:52.818Z,99.90
2019-05-01T03:07:23.239Z,99.90
2019-05-01T03:09:52.978Z,99.90
2019-05-01T03:12:25.264Z,99.90
2019-05-01T03:14:57.607Z,99.90
2019-05-01T03:17:49.794Z,99.90
2019-05-01T03:20:32.332Z,99.80
2019-05-01T03:23:18.519Z,99.80
2019-05-01T03:25:49.047Z,99.90
2019-05-01T03:28:18.870Z,99.90
2019-05-01T03:30:48.844Z,99.90
2019-05-01T03:33:19.114Z,99.90
2019-05-01T03:35:48.815Z,99.90
2019-05-01T03:38:19.754Z,99.90
2019-05-01T03:40:49.466Z,99.90
2019-05-01T03:43:19.719Z,99.90
2019-05-01T03:45:49.574Z,99.90
2019-05-01T03:48:19.097Z,99.90
2019-05-01T03:50:48.929Z,99.90
2019-05-01T03:53:19.375Z,99.80
2019-05-01T03:55:49.092Z,99.90
2019-05-01T03:58:18.805Z,99.90
2019-05-01T04:01:13.320Z,99.90
2019-05-01T04:03:51.560Z,99.90
2019-05-01T04:06:21.475Z,99.90
2019-05-01T04:08:51.292Z,99.90
2019-05-01T04:11:20.890Z,99.80
2019-05-01T04:13:50.571Z,99.70
2019-05-01T04:16:20.794Z,99.70
2019-05-01T04:18:51.327Z,99.40
2019-05-01T04:21:23.225Z,99.30
2019-05-01T04:23:53.183Z,99.40
2019-05-01T04:26:23.556Z,99.50
2019-05-01T04:29:15.205Z,99.40
2019-05-01T04:32:09.912Z,99.40
2019-05-01T04:35:07.786Z,99.30
2019-05-01T04:37:37.527Z,99.20
2019-05-01T04:40:07.649Z,99.00
2019-05-01T04:42:37.050Z,98.80
2019-05-01T04:45:07.217Z,98.60
2019-05-01T04:47:36.781Z,98.40
2019-05-01T04:50:07.196Z,98.30
2019-05-01T04:52:37.015Z,98.20
2019-05-01T04:55:06.484Z,98.00
2019-05-01T04:57:36.157Z,97.90
2019-05-01T05:00:06.367Z,97.70
2019-05-01T05:02:42.345Z,97.60
2019-05-01T05:05:12.174Z,97.20
2019-05-01T05:07:42.082Z,97.10
2019-05-01T05:10:12.889Z,96.70
2019-05-01T05:13:07.022Z,96.40
2019-05-01T05:15:52.076Z,96.20
2019-05-01T05:18:21.703Z,95.70
2019-05-01T05:20:51.451Z,95.70
2019-05-01T05:23:21.370Z,95.50
2019-05-01T05:25:51.036Z,95.30
2019-05-01T05:28:21.785Z,95.10
2019-05-01T05:30:53.956Z,94.60
2019-05-01T05:33:24.821Z,94.50
2019-05-01T05:35:56.591Z,94.30
2019-05-01T05:38:43.509Z,94.10
2019-05-01T05:41:14.533Z,93.80
2019-05-01T05:43:44.336Z,93.60
2019-05-01T05:46:14.194Z,93.40
2019-05-01T05:48:43.559Z,93.10
2019-05-01T05:51:36.071Z,92.60
2019-05-01T05:54:14.447Z,92.30
2019-05-01T05:56:52.130Z,92.30
2019-05-01T05:59:27.413Z,92.10
2019-05-01T06:02:08.658Z,91.90
2019-05-01T06:04:57.071Z,91.40
2019-05-01T06:07:40.263Z,91.60
2019-05-01T06:10:23.115Z,91.30
2019-05-01T06:13:11.195Z,91.10
2019-05-01T06:15:58.015Z,90.50
2019-05-01T06:18:39.414Z,89.40
2019-05-01T06:21:26.698Z,78.50
2019-05-01T06:24:07.233Z,68.30
2019-05-01T06:26:39.392Z,60.20
2019-05-01T06:29:09.120Z,56.00
2019-05-01T06:31:38.922Z,52.10
2019-05-01T06:34:08.335Z,49.10
2019-05-01T06:36:37.898Z,46.00
2019-05-01T06:39:11.834Z,43.80
2019-05-01T06:41:44.974Z,43.00
2019-05-01T06:44:21.434Z,41.00
2019-05-01T06:47:03.256Z,40.20
2019-05-01T06:50:01.283Z,40.20
2019-05-01T06:52:30.726Z,38.90
2019-05-01T06:55:00.943Z,38.40
2019-05-01T06:57:31.075Z,39.30
2019-05-01T07:00:03.194Z,39.10
2019-05-01T07:02:35.000Z,37.70
2019-05-01T07:05:04.143Z,37.80
2019-05-01T07:07:34.042Z,37.40
2019-05-01T07:10:05.256Z,37.00
2019-05-01T07:12:35.673Z,36.40
2019-05-01T07:15:06.190Z,36.60
2019-05-01T07:17:36.085Z,35.70
2019-05-01T07:20:25.563Z,36.70
2019-05-01T07:22:55.941Z,35.70
2019-05-01T07:25:25.307Z,35.60
2019-05-01T07:27:58.601Z,35.10
2019-05-01T07:30:34.827Z,34.40
2019-05-01T07:33:04.146Z,34.70
2019-05-01T07:35:36.702Z,34.70
2019-05-01T07:38:04.810Z,34.60
2019-05-01T07:40:34.653Z,35.10
2019-05-01T07:43:11.976Z,33.50
2019-05-01T07:45:54.167Z,33.80
2019-05-01T07:48:31.553Z,33.60
2019-05-01T07:51:01.936Z,32.30
2019-05-01T07:53:33.397Z,33.50
2019-05-01T07:56:03.140Z,34.30
2019-05-01T07:58:32.755Z,33.60
2019-05-01T08:01:21.527Z,32.10
2019-05-01T08:03:50.882Z,32.60
2019-05-01T08:06:21.432Z,32.20
2019-05-01T08:08:52.457Z,32.50
2019-05-01T08:11:22.002Z,31.80
2019-05-01T08:13:51.591Z,31.90
2019-05-01T08:16:20.841Z,33.50
2019-05-01T08:18:59.164Z,33.70
2019-05-01T08:21:48.886Z,33.10
2019-05-01T08:24:22.985Z,32.00
2019-05-01T08:26:49.857Z,31.90
2019-05-01T08:29:41.855Z,32.50
2019-05-01T08:32:23.462Z,31.80
2019-05-01T08:34:55.667Z,31.60
2019-05-01T08:37:27.136Z,31.90
2019-05-01T08:39:56.150Z,32.50
2019-05-01T08:42:37.701Z,31.70
2019-05-01T08:45:26.842Z,32.60
2019-05-01T08:48:16.336Z,31.50
2019-05-01T08:50:48.033Z,31.40
2019-05-01T08:53:18.100Z,31.60
2019-05-01T08:55:49.194Z,32.00
2019-05-01T08:58:18.713Z,31.30
2019-05-01T09:00:48.817Z,31.30
2019-05-01T09:03:19.193Z,31.70
2019-05-01T09:05:52.315Z,32.80
2019-05-01T09:08:20.787Z,32.80
2019-05-01T09:10:54.637Z,33.20
2019-05-01T09:13:23.728Z,33.20
2019-05-01T09:15:54.534Z,34.30
2019-05-01T09:18:24.565Z,33.70
2019-05-01T09:20:56.270Z,34.20
2019-05-01T09:23:25.552Z,33.70
2019-05-01T09:26:33.091Z,33.70
2019-05-01T09:29:11.013Z,34.30
2019-05-01T09:31:40.764Z,35.50
2019-05-01T09:34:13.976Z,36.60
2019-05-01T09:36:41.723Z,36.00
2019-05-01T09:39:12.765Z,35.40
2019-05-01T09:41:47.618Z,37.00
2019-05-01T09:44:17.554Z,37.40
2019-05-01T09:46:50.175Z,36.90
2019-05-01T09:49:20.291Z,36.20
2019-05-01T09:52:18.948Z,35.90
2019-05-01T09:54:56.208Z,36.50
2019-05-01T09:57:27.290Z,35.30
2019-05-01T09:59:59.693Z,34.60
2019-05-01T10:02:30.004Z,33.40
2019-05-01T10:05:02.007Z,34.50
2019-05-01T10:07:31.039Z,34.50
2019-05-01T10:10:01.195Z,34.10
2019-05-01T10:12:33.105Z,34.80
2019-05-01T10:15:02.548Z,35.10
2019-05-01T10:17:33.446Z,35.00
2019-05-01T10:20:06.041Z,36.30
2019-05-01T10:22:37.582Z,38.00
2019-05-01T10:25:12.385Z,38.00
2019-05-01T10:27:44.073Z,38.60
2019-05-01T10:30:36.229Z,39.00
2019-05-01T10:33:06.269Z,40.60
2019-05-01T10:36:07.093Z,43.60
2019-05-01T10:38:45.112Z,43.70
2019-05-01T10:41:12.194Z,43.80
2019-05-01T10:43:41.733Z,40.90
2019-05-01T10:46:13.527Z,40.70
2019-05-01T10:48:43.002Z,39.00
2019-05-01T10:51:12.336Z,37.80
2019-05-01T10:53:43.298Z,35.90
2019-05-01T10:56:12.699Z,37.60
2019-05-01T10:58:42.317Z,40.50
2019-05-01T11:01:21.590Z,41.80
2019-05-01T11:03:50.957Z,41.70
2019-05-01T11:06:20.262Z,41.90
2019-05-01T11:08:49.700Z,40.10
2019-05-01T11:11:19.039Z,40.60
2019-05-01T11:13:50.350Z,40.50
2019-05-01T11:16:20.353Z,39.20
2019-05-01T11:18:49.768Z,39.80
2019-05-01T11:21:19.058Z,38.90
2019-05-01T11:23:48.458Z,38.90
2019-05-01T11:26:17.786Z,38.00
2019-05-01T11:28:47.709Z,38.50
2019-05-01T11:31:19.735Z,39.40
2019-05-01T11:34:20.374Z,39.10
2019-05-01T11:37:27.470Z,39.30
2019-05-01T11:40:04.547Z,39.20
2019-05-01T11:42:36.118Z,36.80
2019-05-01T11:45:06.759Z,37.90
2019-05-01T11:47:36.058Z,38.20
2019-05-01T11:50:06.443Z,38.30
2019-05-01T11:52:36.000Z,37.70
2019-05-01T11:55:06.154Z,38.80
2019-05-01T11:57:35.457Z,39.10
2019-05-01T12:00:06.234Z,39.70
2019-05-01T12:02:35.581Z,40.40
2019-05-01T12:05:05.385Z,40.00
2019-05-01T12:07:35.149Z,39.90
2019-05-01T12:10:05.463Z,39.80
2019-05-01T12:12:35.133Z,39.60
2019-05-01T12:15:05.805Z,40.10
2019-05-01T12:17:47.360Z,40.60
2019-05-01T12:20:19.377Z,41.30
2019-05-01T12:22:51.417Z,42.00
2019-05-01T12:25:20.074Z,42.20
2019-05-01T12:27:49.460Z,42.00
2019-05-01T12:30:19.242Z,42.60
2019-05-01T12:32:48.611Z,42.60
2019-05-01T12:35:18.907Z,43.00
2019-05-01T12:37:48.289Z,43.90
2019-05-01T12:40:20.515Z,44.00
2019-05-01T12:42:50.093Z,43.90
2019-05-01T12:45:19.942Z,44.10
2019-05-01T12:47:51.638Z,43.80
2019-05-01T12:50:21.214Z,45.10
2019-05-01T12:53:25.124Z,45.00
2019-05-01T12:56:16.165Z,45.90
2019-05-01T12:58:47.023Z,45.50
2019-05-01T13:01:16.863Z,45.40
2019-05-01T13:03:47.119Z,45.70
2019-05-01T13:06:16.487Z,45.80
2019-05-01T13:08:48.047Z,47.20
2019-05-01T13:11:17.401Z,47.10
2019-05-01T13:13:47.206Z,47.10
2019-05-01T13:16:16.511Z,46.30
2019-05-01T13:18:46.077Z,46.00
2019-05-01T13:21:15.408Z,46.10
2019-05-01T13:23:44.932Z,45.70
2019-05-01T13:26:32.749Z,45.90
2019-05-01T13:29:10.435Z,45.70
2019-05-01T13:31:54.119Z,45.60
2019-05-01T13:34:23.421Z,44.90
2019-05-01T13:37:02.943Z,44.80
2019-05-01T13:39:23.888Z,45.20
2019-05-01T13:41:53.386Z,44.50
2019-05-01T13:44:22.838Z,44.40
2019-05-01T13:46:52.322Z,44.80
2019-05-01T13:49:21.671Z,45.60
2019-05-01T13:51:51.093Z,46.00
2019-05-01T13:54:20.483Z,45.70
2019-05-01T13:56:51.486Z,46.30
2019-05-01T13:59:20.865Z,46.20
2019-05-01T14:01:50.506Z,46.10
2019-05-01T14:04:22.328Z,46.00
2019-05-01T14:06:51.726Z,46.90
2019-05-01T14:09:26.934Z,47.30
2019-05-01T14:11:56.305Z,47.30
2019-05-01T14:14:26.831Z,47.80
2019-05-01T14:16:58.499Z,48.40
2019-05-01T14:19:28.438Z,48.50
2019-05-01T14:22:22.734Z,49.70
2019-05-01T14:24:55.597Z,49.60
2019-05-01T14:27:25.086Z,49.60
2019-05-01T14:29:54.426Z,50.30
2019-05-01T14:32:23.745Z,51.00
2019-05-01T14:34:53.046Z,51.60
2019-05-01T14:37:29.529Z,51.80
2019-05-01T14:39:53.486Z,51.80
2019-05-01T14:42:22.801Z,52.40
2019-05-01T14:44:53.420Z,53.20
2019-05-01T14:47:22.723Z,54.20
2019-05-01T14:49:52.576Z,54.30
2019-05-01T14:52:22.096Z,55.20
2019-05-01T14:54:51.826Z,54.90
2019-05-01T14:57:21.354Z,55.10
2019-05-01T14:59:52.255Z,54.70
2019-05-01T15:02:21.679Z,54.50
2019-05-01T15:04:51.210Z,54.50
2019-05-01T15:07:20.551Z,55.20
2019-05-01T15:09:50.017Z,54.80
2019-05-01T15:12:19.388Z,54.40
2019-05-01T15:15:06.059Z,54.80
2019-05-01T15:17:49.696Z,56.20
2019-05-01T15:20:19.365Z,56.50
2019-05-01T15:22:48.710Z,56.70
2019-05-01T15:25:17.989Z,58.10
2019-05-01T15:27:49.461Z,58.60
2019-05-01T15:30:19.616Z,59.00
2019-05-01T15:32:49.102Z,60.00
2019-05-01T15:35:18.575Z,60.30
2019-05-01T15:37:56.573Z,60.10
2019-05-01T15:40:43.833Z,60.80
2019-05-01T15:43:28.578Z,60.80
2019-05-01T15:45:58.746Z,61.10
2019-05-01T15:48:28.258Z,61.20
2019-05-01T15:50:57.656Z,61.10
2019-05-01T15:53:27.149Z,61.60
2019-05-01T15:55:56.547Z,62.00
2019-05-01T15:58:26.948Z,62.30
2019-05-01T16:00:58.302Z,62.80
2019-05-01T16:03:27.803Z,63.20
2019-05-01T16:05:57.131Z,63.70
2019-05-01T16:08:26.594Z,63.70
2019-05-01T16:11:04.712Z,63.60
2019-05-01T16:13:34.031Z,63.60
2019-05-01T16:16:03.686Z,64.20
2019-05-01T16:18:33.041Z,63.90
2019-05-01T16:21:02.591Z,63.70
2019-05-01T16:23:34.815Z,63.40
2019-05-01T16:26:04.243Z,63.80
2019-05-01T16:28:33.614Z,63.80
2019-05-01T16:31:02.950Z,63.60
2019-05-01T16:33:32.262Z,63.70
2019-05-01T16:36:01.620Z,63.40
2019-05-01T16:38:41.773Z,63.70
2019-05-01T16:41:11.172Z,63.90
2019-05-01T16:43:40.622Z,64.30
2019-05-01T16:46:10.653Z,64.80
2019-05-01T16:48:41.086Z,64.60
2019-05-01T16:51:10.592Z,65.40
2019-05-01T16:53:40.974Z,65.80
2019-05-01T16:56:10.301Z,66.30
2019-05-01T16:58:40.212Z,66.40
2019-05-01T17:01:14.448Z,66.70
2019-05-01T17:04:04.240Z,66.90
2019-05-01T17:06:45.348Z,67.40
2019-05-01T17:09:39.254Z,68.20
2019-05-01T17:12:10.892Z,68.90
2019-05-01T17:14:41.603Z,68.90
2019-05-01T17:17:15.410Z,69.10
2019-05-01T17:19:44.782Z,69.40
2019-05-01T17:22:16.202Z,70.00
2019-05-01T17:24:45.638Z,70.10
2019-05-01T17:27:15.367Z,70.50
2019-05-01T17:29:44.862Z,70.50
2019-05-01T17:32:16.036Z,71.40
2019-05-01T17:34:45.560Z,71.70
2019-05-01T17:37:15.030Z,72.50
2019-05-01T17:39:47.013Z,72.90
2019-05-01T17:42:22.147Z,73.70
2019-05-01T17:44:55.875Z,74.50
2019-05-01T17:47:29.021Z,74.90
2019-05-01T17:49:59.860Z,75.30
2019-05-01T17:52:31.649Z,76.10
2019-05-01T17:55:11.780Z,76.70
2019-05-01T17:57:43.039Z,77.00
2019-05-01T18:00:39.908Z,77.30
2019-05-01T18:03:48.044Z,77.60
2019-05-01T18:06:20.189Z,78.10
2019-05-01T18:09:02.190Z,78.30
2019-05-01T18:11:22.353Z,78.70
2019-05-01T18:13:56.704Z,78.90
2019-05-01T18:16:27.790Z,79.40
2019-05-01T18:18:58.765Z,79.30
2019-05-01T18:21:33.232Z,79.70
2019-05-01T18:24:40.699Z,80.10
2019-05-01T18:27:29.306Z,80.70
2019-05-01T18:30:15.706Z,80.70
2019-05-01T18:32:49.410Z,81.20
2019-05-01T18:35:17.873Z,81.70
2019-05-01T18:38:06.291Z,82.10
2019-05-01T18:40:40.748Z,82.40
2019-05-01T18:43:10.762Z,82.70
2019-05-01T18:45:51.907Z,82.90
2019-05-01T18:48:24.378Z,82.90
2019-05-01T18:50:56.130Z,83.30
2019-05-01T18:53:25.890Z,83.40
2019-05-01T18:55:55.373Z,83.50
2019-05-01T18:58:24.673Z,83.70
2019-05-01T19:00:54.347Z,83.80
2019-05-01T19:03:23.696Z,83.80
2019-05-01T19:05:52.983Z,83.80
2019-05-01T19:08:22.618Z,83.80
2019-05-01T19:10:51.986Z,83.90
2019-05-01T19:13:21.462Z,83.80
2019-05-01T19:15:50.801Z,84.30
2019-05-01T19:18:20.747Z,84.00
2019-05-01T19:20:59.338Z,84.30
2019-05-01T19:23:22.103Z,84.50
2019-05-01T19:25:56.554Z,84.60
2019-05-01T19:28:23.637Z,84.90
2019-05-01T19:30:53.102Z,85.00
2019-05-01T19:33:22.665Z,85.00
2019-05-01T19:35:52.215Z,85.00
2019-05-01T19:38:23.517Z,84.70
2019-05-01T19:40:52.963Z,84.80
2019-05-01T19:43:22.893Z,84.70
2019-05-01T19:45:52.537Z,84.80
2019-05-01T19:48:23.531Z,84.40
2019-05-01T19:50:53.314Z,84.50
2019-05-01T19:53:22.746Z,84.60
2019-05-01T19:55:53.391Z,84.50
2019-05-01T19:58:23.337Z,84.40
2019-05-01T20:00:58.229Z,84.40
2019-05-01T20:03:30.618Z,84.70
2019-05-01T20:06:06.015Z,84.90
2019-05-01T20:08:40.084Z,85.30
2019-05-01T20:11:11.682Z,85.40
2019-05-01T20:13:44.015Z,85.50
2019-05-01T20:16:15.381Z,85.40
2019-05-01T20:18:50.947Z,85.80
2019-05-01T20:21:25.754Z,85.60
2019-05-01T20:23:55.246Z,85.90
2019-05-01T20:26:34.018Z,86.00
2019-05-01T20:29:07.795Z,86.30
2019-05-01T20:31:36.821Z,86.20
2019-05-01T20:34:06.483Z,86.20
2019-05-01T20:36:35.987Z,86.30
2019-05-01T20:39:07.566Z,86.60
2019-05-01T20:41:37.304Z,86.90
2019-05-01T20:44:06.660Z,87.20
2019-05-01T20:46:36.154Z,87.40
2019-05-01T20:49:06.611Z,87.40
2019-05-01T20:51:36.334Z,87.60
2019-05-01T20:54:05.654Z,87.80
2019-05-01T20:56:44.347Z,87.80
2019-05-01T20:59:13.688Z,88.10
2019-05-01T21:01:43.242Z,88.40
2019-05-01T21:04:29.155Z,88.50
2019-05-01T21:07:29.761Z,88.70
2019-05-01T21:09:59.806Z,88.70
2019-05-01T21:12:29.268Z,88.90
2019-05-01T21:14:58.635Z,89.00
2019-05-01T21:17:28.092Z,89.20
2019-05-01T21:19:57.382Z,89.40
2019-05-01T21:22:33.382Z,89.30
2019-05-01T21:25:04.528Z,89.40
2019-05-01T21:27:35.186Z,89.70
2019-05-01T21:30:05.103Z,89.60
2019-05-01T21:32:34.615Z,89.60
2019-05-01T21:35:04.926Z,89.60
2019-05-01T21:37:34.349Z,89.60
2019-05-01T21:40:03.929Z,89.70
2019-05-01T21:42:33.294Z,89.80
2019-05-01T21:45:04.310Z,89.90
2019-05-01T21:47:33.864Z,90.00
2019-05-01T21:50:03.373Z,89.80
2019-05-01T21:52:33.294Z,89.60
2019-05-01T21:55:05.333Z,89.60
2019-05-01T21:57:37.773Z,89.90
2019-05-01T22:00:07.522Z,90.00
2019-05-01T22:02:36.951Z,89.80
2019-05-01T22:05:07.077Z,89.90
2019-05-01T22:07:38.568Z,89.70
2019-05-01T22:10:08.621Z,90.00
2019-05-01T22:12:38.219Z,90.20
2019-05-01T22:15:16.003Z,90.20
2019-05-01T22:18:01.736Z,90.00
2019-05-01T22:20:37.046Z,89.80
2019-05-01T22:23:09.728Z,89.80
2019-05-01T22:25:43.979Z,89.60
2019-05-01T22:28:21.609Z,89.30
2019-05-01T22:31:01.472Z,89.00
2019-05-01T22:33:30.993Z,89.00
2019-05-01T22:36:00.267Z,88.80
2019-05-01T22:38:29.654Z,88.70
2019-05-01T22:41:07.479Z,88.70
2019-05-01T22:43:36.868Z,88.50
2019-05-01T22:46:08.526Z,88.40
2019-05-01T22:48:37.909Z,88.40
2019-05-01T22:51:21.066Z,88.20
2019-05-01T22:53:54.826Z,88.40
2019-05-01T22:56:25.958Z,88.60
2019-05-01T22:58:55.567Z,88.60
2019-05-01T23:01:26.280Z,88.60
2019-05-01T23:04:04.510Z,89.20
2019-05-01T23:06:37.199Z,89.40
2019-05-01T23:09:08.547Z,89.30
2019-05-01T23:11:41.884Z,89.30
2019-05-01T23:14:11.958Z,88.70
2019-05-01T23:16:52.272Z,89.50
2019-05-01T23:19:22.830Z,89.60
2019-05-01T23:21:52.697Z,90.00
2019-05-01T23:24:22.170Z,90.10
2019-05-01T23:26:51.891Z,90.30
2019-05-01T23:29:22.525Z,90.20
2019-05-01T23:31:51.905Z,90.00
2019-05-01T23:34:25.995Z,90.00
2019-05-01T23:36:52.237Z,89.60
2019-05-01T23:39:21.570Z,88.70
2019-05-01T23:41:51.495Z,89.00
2019-05-01T23:44:20.842Z,88.80
2019-05-01T23:46:50.318Z,88.70
2019-05-01T23:49:19.749Z,89.00
2019-05-01T23:51:50.242Z,89.20
2019-05-01T23:54:19.547Z,89.30
2019-05-01T23:56:49.066Z,89.00
2019-05-01T23:59:18.330Z,89.20
